LNI3567 WAHI-WILL
Flight info
| Callsign | LNI3567 |
|---|---|
| Flight time | 0h 59m |
| Altitude | 36000 |
| Route | SAPON DCT PALIM DCT KAKAP DCT SIPAH DCT RIMTI |
| Aircraft | B738/M-SDE2E3FGHIRWXY/LB1 |
Departure
| Time | 2026-05-08 23:53 |
|---|---|
| Airport | Yogyakarta International Airport (WAHI) |
Arrival
| Time | 2026-05-09 00:53 |
|---|---|
| Airport | Radin Inten II International Airport (WILL) |
| Time | Latitude | Longitude | Altitude | Speed | Heading |
|---|---|---|---|---|---|
| 2026-05-08 23:28 | -7.90026 | 110.05637 | 32 ft | 0 kts | 21° |
| 2026-05-08 23:40 | -7.90026 | 110.05636 | 32 ft | 1 kts | 21° |
| 2026-05-08 23:41 | -7.90039 | 110.05631 | 32 ft | 3 kts | 21° |
| 2026-05-08 23:41 | -7.90058 | 110.05624 | 32 ft | 3 kts | 20° |
| 2026-05-08 23:41 | -7.90077 | 110.05618 | 30 ft | 3 kts | 16° |
| 2026-05-08 23:41 | -7.90097 | 110.05613 | 31 ft | 3 kts | 11° |
| 2026-05-08 23:42 | -7.90117 | 110.05610 | 30 ft | 3 kts | 3° |
| 2026-05-08 23:42 | -7.90124 | 110.05609 | 31 ft | 8 kts | 359° |
| 2026-05-08 23:46 | -7.90119 | 110.05607 | 31 ft | 1 kts | 338° |
| 2026-05-08 23:47 | -7.90112 | 110.05596 | 32 ft | 3 kts | 298° |
| 2026-05-08 23:47 | -7.90101 | 110.05569 | 32 ft | 5 kts | 292° |
| 2026-05-08 23:47 | -7.90083 | 110.05526 | 32 ft | 8 kts | 292° |
| 2026-05-08 23:47 | -7.90060 | 110.05467 | 32 ft | 10 kts | 290° |
| 2026-05-08 23:48 | -7.90035 | 110.05395 | 32 ft | 11 kts | 290° |
| 2026-05-08 23:48 | -7.90006 | 110.05318 | 30 ft | 13 kts | 290° |
| 2026-05-08 23:48 | -7.89973 | 110.05228 | 31 ft | 15 kts | 290° |
| 2026-05-08 23:48 | -7.89969 | 110.05152 | 31 ft | 11 kts | 230° |
| 2026-05-08 23:49 | -7.90039 | 110.05119 | 32 ft | 12 kts | 200° |
| 2026-05-08 23:49 | -7.90098 | 110.05080 | 32 ft | 10 kts | 248° |
| 2026-05-08 23:49 | -7.90084 | 110.05010 | 32 ft | 11 kts | 290° |
| 2026-05-08 23:49 | -7.90055 | 110.04929 | 32 ft | 13 kts | 290° |
| 2026-05-08 23:50 | -7.90021 | 110.04839 | 31 ft | 15 kts | 291° |
| 2026-05-08 23:50 | -7.89983 | 110.04736 | 32 ft | 16 kts | 288° |
| 2026-05-08 23:50 | -7.89943 | 110.04620 | 32 ft | 18 kts | 289° |
| 2026-05-08 23:50 | -7.89902 | 110.04507 | 32 ft | 15 kts | 289° |
| 2026-05-08 23:51 | -7.89865 | 110.04402 | 31 ft | 12 kts | 290° |
| 2026-05-08 23:51 | -7.89849 | 110.04322 | 32 ft | 11 kts | 253° |
| 2026-05-08 23:51 | -7.89899 | 110.04301 | 32 ft | 7 kts | 161° |
| 2026-05-08 23:51 | -7.89948 | 110.04323 | 32 ft | 9 kts | 155° |
| 2026-05-08 23:52 | -7.90007 | 110.04348 | 33 ft | 9 kts | 168° |
| 2026-05-08 23:52 | -7.90046 | 110.04392 | 33 ft | 5 kts | 109° |
| 2026-05-08 23:52 | -7.90046 | 110.04393 | 33 ft | 0 kts | 109° |
| 2026-05-08 23:52 | -7.90047 | 110.04397 | 33 ft | 7 kts | 109° |
| 2026-05-08 23:53 | -7.90163 | 110.04713 | 31 ft | 89 kts | 110° |
| 2026-05-08 23:53 | -7.90462 | 110.05531 | 34 ft | 157 kts | 110° |
| 2026-05-08 23:53 | -7.90920 | 110.06703 | 366 ft | 190 kts | 112° |
| 2026-05-08 23:53 | -7.91409 | 110.07923 | 1442 ft | 184 kts | 109° |
| 2026-05-08 23:54 | -7.91832 | 110.09118 | 2435 ft | 185 kts | 109° |
| 2026-05-08 23:54 | -7.92311 | 110.10429 | 2769 ft | 213 kts | 109° |
| 2026-05-08 23:54 | -7.92853 | 110.11903 | 3145 ft | 231 kts | 109° |
| 2026-05-08 23:55 | -7.94678 | 110.14559 | 4419 ft | 246 kts | 157° |
| 2026-05-08 23:55 | -7.96409 | 110.14735 | 4946 ft | 266 kts | 192° |
| 2026-05-08 23:55 | -7.98042 | 110.13808 | 5606 ft | 279 kts | 227° |
| 2026-05-08 23:55 | -7.98923 | 110.12070 | 6420 ft | 284 kts | 261° |
| 2026-05-08 23:56 | -7.98743 | 110.10104 | 7209 ft | 287 kts | 292° |
| 2026-05-08 23:56 | -7.97553 | 110.08505 | 7955 ft | 290 kts | 325° |
| 2026-05-08 23:56 | -7.95727 | 110.07663 | 8760 ft | 291 kts | 347° |
| 2026-05-08 23:56 | -7.93716 | 110.07522 | 9528 ft | 293 kts | 11° |
| 2026-05-08 23:57 | -7.91868 | 110.08350 | 10210 ft | 297 kts | 40° |
| 2026-05-08 23:57 | -7.90587 | 110.10051 | 10428 ft | 319 kts | 66° |
| 2026-05-08 23:57 | -7.89486 | 110.12071 | 10585 ft | 342 kts | 49° |
| 2026-05-08 23:57 | -7.87533 | 110.13503 | 10908 ft | 358 kts | 22° |
| 2026-05-08 23:58 | -7.85078 | 110.13961 | 11477 ft | 364 kts | 358° |
| 2026-05-08 23:58 | -7.82601 | 110.13436 | 12124 ft | 368 kts | 336° |
| 2026-05-08 23:58 | -7.80501 | 110.11977 | 12744 ft | 371 kts | 311° |
| 2026-05-08 23:58 | -7.79188 | 110.09750 | 13390 ft | 373 kts | 288° |
| 2026-05-08 23:59 | -7.78604 | 110.07201 | 14030 ft | 374 kts | 278° |
| 2026-05-08 23:59 | -7.78289 | 110.04586 | 14570 ft | 378 kts | 275° |
| 2026-05-08 23:59 | -7.78025 | 110.01935 | 15092 ft | 382 kts | 275° |
| 2026-05-08 23:59 | -7.77732 | 109.99258 | 15631 ft | 386 kts | 276° |
| 2026-05-09 00:00 | -7.77392 | 109.96569 | 16180 ft | 389 kts | 277° |
| 2026-05-09 00:00 | -7.77011 | 109.93858 | 16712 ft | 392 kts | 277° |
| 2026-05-09 00:00 | -7.76600 | 109.91130 | 17230 ft | 395 kts | 278° |
| 2026-05-09 00:00 | -7.76171 | 109.88379 | 17744 ft | 399 kts | 278° |
| 2026-05-09 00:01 | -7.75731 | 109.85609 | 18241 ft | 402 kts | 278° |
| 2026-05-09 00:01 | -7.75285 | 109.82817 | 18673 ft | 405 kts | 278° |
| 2026-05-09 00:01 | -7.74836 | 109.80008 | 19130 ft | 407 kts | 278° |
| 2026-05-09 00:01 | -7.74384 | 109.77184 | 19582 ft | 409 kts | 278° |
| 2026-05-09 00:02 | -7.73931 | 109.74346 | 20021 ft | 411 kts | 277° |
| 2026-05-09 00:02 | -7.73475 | 109.71488 | 20445 ft | 414 kts | 277° |
| 2026-05-09 00:02 | -7.73017 | 109.68614 | 20863 ft | 416 kts | 277° |
| 2026-05-09 00:02 | -7.72555 | 109.65722 | 21290 ft | 419 kts | 277° |
| 2026-05-09 00:03 | -7.72091 | 109.62814 | 21706 ft | 421 kts | 277° |
| 2026-05-09 00:03 | -7.71624 | 109.59893 | 22116 ft | 424 kts | 277° |
| 2026-05-09 00:03 | -7.71122 | 109.56960 | 22511 ft | 427 kts | 281° |
| 2026-05-09 00:03 | -7.70188 | 109.54104 | 22887 ft | 432 kts | 292° |
| 2026-05-09 00:04 | -7.68790 | 109.51460 | 23272 ft | 436 kts | 301° |
| 2026-05-09 00:04 | -7.66931 | 109.49029 | 23617 ft | 440 kts | 308° |
| 2026-05-09 00:04 | -7.64925 | 109.46691 | 23939 ft | 442 kts | 310° |
| 2026-05-09 00:04 | -7.62883 | 109.44366 | 24251 ft | 444 kts | 310° |
| 2026-05-09 00:05 | -7.60830 | 109.42035 | 24573 ft | 445 kts | 310° |
| 2026-05-09 00:05 | -7.58751 | 109.39658 | 24894 ft | 447 kts | 310° |
| 2026-05-09 00:05 | -7.56727 | 109.37327 | 25201 ft | 449 kts | 310° |
| 2026-05-09 00:05 | -7.54678 | 109.34952 | 25508 ft | 450 kts | 310° |
| 2026-05-09 00:06 | -7.52625 | 109.32562 | 25797 ft | 452 kts | 310° |
| 2026-05-09 00:06 | -7.50565 | 109.30159 | 26095 ft | 454 kts | 310° |
| 2026-05-09 00:06 | -7.48497 | 109.27744 | 26380 ft | 455 kts | 310° |
| 2026-05-09 00:06 | -7.46396 | 109.25291 | 26662 ft | 457 kts | 310° |
| 2026-05-09 00:07 | -7.44343 | 109.22895 | 26932 ft | 459 kts | 310° |
| 2026-05-09 00:07 | -7.42256 | 109.20459 | 27195 ft | 461 kts | 310° |
| 2026-05-09 00:07 | -7.40157 | 109.18011 | 27460 ft | 462 kts | 310° |
| 2026-05-09 00:07 | -7.38052 | 109.15556 | 27720 ft | 464 kts | 310° |
| 2026-05-09 00:08 | -7.35939 | 109.13093 | 27974 ft | 465 kts | 310° |
| 2026-05-09 00:08 | -7.33820 | 109.10622 | 28216 ft | 467 kts | 310° |
| 2026-05-09 00:08 | -7.31692 | 109.08143 | 28450 ft | 469 kts | 310° |
| 2026-05-09 00:08 | -7.29557 | 109.05655 | 28691 ft | 470 kts | 310° |
| 2026-05-09 00:09 | -7.27416 | 109.03160 | 28922 ft | 472 kts | 310° |
| 2026-05-09 00:09 | -7.25267 | 109.00657 | 29137 ft | 473 kts | 310° |
| 2026-05-09 00:09 | -7.23108 | 108.98142 | 29345 ft | 475 kts | 310° |
| 2026-05-09 00:09 | -7.20947 | 108.95626 | 29552 ft | 476 kts | 310° |
| 2026-05-09 00:10 | -7.18775 | 108.93097 | 29758 ft | 478 kts | 310° |
| 2026-05-09 00:10 | -7.16603 | 108.90568 | 29975 ft | 478 kts | 310° |
| 2026-05-09 00:10 | -7.14427 | 108.88036 | 30226 ft | 478 kts | 310° |
| 2026-05-09 00:10 | -7.12256 | 108.85509 | 30498 ft | 476 kts | 310° |
| 2026-05-09 00:11 | -7.10090 | 108.82989 | 30766 ft | 475 kts | 310° |
| 2026-05-09 00:11 | -7.07927 | 108.80471 | 30987 ft | 475 kts | 310° |
| 2026-05-09 00:11 | -7.05764 | 108.77955 | 31216 ft | 476 kts | 310° |
| 2026-05-09 00:11 | -7.03599 | 108.75437 | 31477 ft | 475 kts | 310° |
| 2026-05-09 00:12 | -7.01440 | 108.72926 | 31744 ft | 474 kts | 310° |
| 2026-05-09 00:12 | -6.99283 | 108.70418 | 32007 ft | 474 kts | 310° |
| 2026-05-09 00:12 | -6.97126 | 108.67911 | 32265 ft | 474 kts | 310° |
| 2026-05-09 00:12 | -6.95694 | 108.66246 | 32440 ft | 474 kts | 310° |
| 2026-05-09 00:13 | -6.93542 | 108.63744 | 32711 ft | 473 kts | 311° |
| 2026-05-09 00:13 | -6.91386 | 108.61239 | 32979 ft | 473 kts | 311° |
| 2026-05-09 00:13 | -6.88509 | 108.57896 | 33325 ft | 472 kts | 311° |
| 2026-05-09 00:13 | -6.87085 | 108.56241 | 33518 ft | 472 kts | 311° |
| 2026-05-09 00:14 | -6.84935 | 108.53744 | 33807 ft | 472 kts | 311° |
| 2026-05-09 00:14 | -6.82790 | 108.51252 | 34075 ft | 471 kts | 311° |
| 2026-05-09 00:14 | -6.80648 | 108.48765 | 34357 ft | 469 kts | 311° |
| 2026-05-09 00:14 | -6.78515 | 108.46287 | 34688 ft | 466 kts | 311° |
| 2026-05-09 00:15 | -6.76399 | 108.43830 | 35043 ft | 463 kts | 311° |
| 2026-05-09 00:15 | -6.74297 | 108.41382 | 35337 ft | 462 kts | 310° |
| 2026-05-09 00:15 | -6.72414 | 108.38763 | 35563 ft | 463 kts | 302° |
| 2026-05-09 00:15 | -6.70952 | 108.35880 | 35803 ft | 463 kts | 295° |
| 2026-05-09 00:16 | -6.69664 | 108.32911 | 35928 ft | 465 kts | 294° |
| 2026-05-09 00:16 | -6.67130 | 108.26913 | 35924 ft | 465 kts | 294° |
| 2026-05-09 00:17 | -6.64589 | 108.20964 | 35928 ft | 461 kts | 295° |
| 2026-05-09 00:17 | -6.62028 | 108.15059 | 35919 ft | 459 kts | 295° |
| 2026-05-09 00:18 | -6.59464 | 108.09184 | 35923 ft | 458 kts | 295° |
| 2026-05-09 00:18 | -6.56902 | 108.03320 | 35924 ft | 458 kts | 295° |
| 2026-05-09 00:19 | -6.54340 | 107.97454 | 35933 ft | 458 kts | 295° |
| 2026-05-09 00:19 | -6.51774 | 107.91581 | 35928 ft | 460 kts | 295° |
| 2026-05-09 00:20 | -6.49215 | 107.85723 | 35924 ft | 461 kts | 295° |
| 2026-05-09 00:20 | -6.46628 | 107.79807 | 35924 ft | 463 kts | 295° |
| 2026-05-09 00:21 | -6.44029 | 107.73863 | 35911 ft | 465 kts | 295° |
| 2026-05-09 00:21 | -6.41422 | 107.67903 | 35910 ft | 466 kts | 296° |
| 2026-05-09 00:22 | -6.38806 | 107.61924 | 35907 ft | 467 kts | 295° |
| 2026-05-09 00:22 | -6.36189 | 107.55944 | 35904 ft | 468 kts | 296° |
| 2026-05-09 00:23 | -6.33568 | 107.49958 | 35898 ft | 467 kts | 296° |
| 2026-05-09 00:23 | -6.30950 | 107.43982 | 35901 ft | 467 kts | 296° |
| 2026-05-09 00:24 | -6.28334 | 107.38013 | 35895 ft | 466 kts | 296° |
| 2026-05-09 00:24 | -6.25724 | 107.32057 | 35893 ft | 465 kts | 296° |
| 2026-05-09 00:25 | -6.23116 | 107.26110 | 35888 ft | 465 kts | 296° |
| 2026-05-09 00:25 | -6.20509 | 107.20168 | 35893 ft | 464 kts | 296° |
| 2026-05-09 00:26 | -6.17906 | 107.14236 | 35895 ft | 464 kts | 296° |
| 2026-05-09 00:26 | -6.15301 | 107.08302 | 35888 ft | 464 kts | 296° |
| 2026-05-09 00:27 | -6.12692 | 107.02362 | 35891 ft | 465 kts | 296° |
| 2026-05-09 00:27 | -6.10084 | 106.96423 | 35887 ft | 465 kts | 296° |
| 2026-05-09 00:28 | -6.07474 | 106.90484 | 35883 ft | 465 kts | 296° |
| 2026-05-09 00:28 | -6.04861 | 106.84539 | 35885 ft | 465 kts | 296° |
| 2026-05-09 00:29 | -6.02265 | 106.78637 | 35879 ft | 465 kts | 296° |
| 2026-05-09 00:29 | -6.00949 | 106.75645 | 35334 ft | 476 kts | 296° |
| 2026-05-09 00:29 | -5.99604 | 106.72591 | 34725 ft | 477 kts | 296° |
| 2026-05-09 00:29 | -5.98261 | 106.69537 | 34006 ft | 480 kts | 296° |
| 2026-05-09 00:30 | -5.96914 | 106.66474 | 33301 ft | 480 kts | 295° |
| 2026-05-09 00:30 | -5.95570 | 106.63417 | 32824 ft | 475 kts | 295° |
| 2026-05-09 00:30 | -5.94239 | 106.60391 | 32310 ft | 472 kts | 295° |
| 2026-05-09 00:30 | -5.93103 | 106.57316 | 31804 ft | 469 kts | 287° |
| 2026-05-09 00:31 | -5.92402 | 106.54119 | 31268 ft | 467 kts | 281° |
| 2026-05-09 00:31 | -5.91831 | 106.50919 | 30770 ft | 464 kts | 280° |
| 2026-05-09 00:31 | -5.91284 | 106.47734 | 30305 ft | 461 kts | 280° |
| 2026-05-09 00:31 | -5.90735 | 106.44573 | 29793 ft | 458 kts | 280° |
| 2026-05-09 00:32 | -5.90176 | 106.41442 | 29261 ft | 454 kts | 280° |
| 2026-05-09 00:32 | -5.89609 | 106.38341 | 28755 ft | 449 kts | 280° |
| 2026-05-09 00:32 | -5.89039 | 106.35269 | 28268 ft | 445 kts | 280° |
| 2026-05-09 00:32 | -5.88471 | 106.32235 | 27779 ft | 440 kts | 280° |
| 2026-05-09 00:33 | -5.87908 | 106.29225 | 27322 ft | 436 kts | 280° |
| 2026-05-09 00:33 | -5.87351 | 106.26246 | 26856 ft | 432 kts | 280° |
| 2026-05-09 00:33 | -5.86798 | 106.23291 | 26398 ft | 429 kts | 280° |
| 2026-05-09 00:33 | -5.86251 | 106.20359 | 25944 ft | 425 kts | 280° |
| 2026-05-09 00:34 | -5.85708 | 106.17451 | 25485 ft | 422 kts | 280° |
| 2026-05-09 00:34 | -5.85167 | 106.14558 | 25008 ft | 420 kts | 279° |
| 2026-05-09 00:34 | -5.84544 | 106.11701 | 24534 ft | 419 kts | 287° |
| 2026-05-09 00:34 | -5.83443 | 106.09004 | 24080 ft | 417 kts | 296° |
| 2026-05-09 00:35 | -5.81913 | 106.06523 | 23527 ft | 419 kts | 307° |
| 2026-05-09 00:35 | -5.80008 | 106.04314 | 22990 ft | 418 kts | 311° |
| 2026-05-09 00:35 | -5.78042 | 106.02176 | 22494 ft | 415 kts | 312° |
| 2026-05-09 00:35 | -5.76083 | 106.00068 | 22026 ft | 411 kts | 312° |
| 2026-05-09 00:36 | -5.74145 | 105.97975 | 21572 ft | 408 kts | 312° |
| 2026-05-09 00:36 | -5.72229 | 105.95891 | 21122 ft | 404 kts | 312° |
| 2026-05-09 00:36 | -5.70337 | 105.93820 | 20677 ft | 401 kts | 312° |
| 2026-05-09 00:36 | -5.68486 | 105.91784 | 20242 ft | 399 kts | 312° |
| 2026-05-09 00:37 | -5.66599 | 105.89704 | 19778 ft | 397 kts | 312° |
| 2026-05-09 00:37 | -5.64772 | 105.87690 | 19339 ft | 395 kts | 312° |
| 2026-05-09 00:37 | -5.62929 | 105.85655 | 18897 ft | 393 kts | 312° |
| 2026-05-09 00:37 | -5.61093 | 105.83629 | 18452 ft | 392 kts | 312° |
| 2026-05-09 00:38 | -5.59263 | 105.81610 | 17983 ft | 390 kts | 312° |
| 2026-05-09 00:38 | -5.57441 | 105.79600 | 17515 ft | 388 kts | 312° |
| 2026-05-09 00:38 | -5.55631 | 105.77604 | 17075 ft | 385 kts | 312° |
| 2026-05-09 00:38 | -5.53837 | 105.75626 | 16641 ft | 382 kts | 312° |
| 2026-05-09 00:39 | -5.52056 | 105.73662 | 16216 ft | 379 kts | 312° |
| 2026-05-09 00:39 | -5.50292 | 105.71717 | 15788 ft | 376 kts | 312° |
| 2026-05-09 00:39 | -5.48537 | 105.69782 | 15377 ft | 373 kts | 312° |
| 2026-05-09 00:39 | -5.46797 | 105.67864 | 14959 ft | 370 kts | 313° |
| 2026-05-09 00:40 | -5.45068 | 105.65958 | 14536 ft | 368 kts | 313° |
| 2026-05-09 00:40 | -5.43348 | 105.64063 | 14118 ft | 366 kts | 313° |
| 2026-05-09 00:40 | -5.41641 | 105.62180 | 13702 ft | 364 kts | 313° |
| 2026-05-09 00:41 | -5.38274 | 105.58446 | 12843 ft | 358 kts | 313° |
| 2026-05-09 00:41 | -5.36613 | 105.56603 | 12429 ft | 355 kts | 313° |
| 2026-05-09 00:41 | -5.34963 | 105.54772 | 12024 ft | 352 kts | 313° |
| 2026-05-09 00:41 | -5.33329 | 105.52958 | 11624 ft | 349 kts | 313° |
| 2026-05-09 00:42 | -5.31708 | 105.51160 | 11226 ft | 347 kts | 313° |
| 2026-05-09 00:42 | -5.30096 | 105.49372 | 10829 ft | 344 kts | 313° |
| 2026-05-09 00:42 | -5.28495 | 105.47596 | 10468 ft | 341 kts | 313° |
| 2026-05-09 00:42 | -5.26930 | 105.45860 | 10307 ft | 331 kts | 313° |
| 2026-05-09 00:43 | -5.25405 | 105.44169 | 10159 ft | 322 kts | 313° |
| 2026-05-09 00:43 | -5.23925 | 105.42527 | 10016 ft | 313 kts | 313° |
| 2026-05-09 00:43 | -5.22482 | 105.40927 | 9868 ft | 305 kts | 313° |
| 2026-05-09 00:43 | -5.21089 | 105.39383 | 9848 ft | 292 kts | 313° |
| 2026-05-09 00:44 | -5.19715 | 105.37861 | 9302 ft | 294 kts | 313° |
| 2026-05-09 00:44 | -5.18353 | 105.36350 | 8921 ft | 290 kts | 313° |
| 2026-05-09 00:44 | -5.17017 | 105.34868 | 8676 ft | 283 kts | 313° |
| 2026-05-09 00:44 | -5.15705 | 105.33413 | 8414 ft | 281 kts | 313° |
| 2026-05-09 00:45 | -5.14397 | 105.31961 | 8134 ft | 280 kts | 313° |
| 2026-05-09 00:45 | -5.13095 | 105.30516 | 7860 ft | 278 kts | 313° |
| 2026-05-09 00:45 | -5.11798 | 105.29077 | 7584 ft | 278 kts | 314° |
| 2026-05-09 00:45 | -5.10504 | 105.27642 | 7292 ft | 277 kts | 314° |
| 2026-05-09 00:46 | -5.09213 | 105.26209 | 7013 ft | 277 kts | 314° |
| 2026-05-09 00:46 | -5.07923 | 105.24778 | 6724 ft | 276 kts | 314° |
| 2026-05-09 00:46 | -5.06637 | 105.23351 | 6452 ft | 276 kts | 314° |
| 2026-05-09 00:46 | -5.05349 | 105.21922 | 6147 ft | 276 kts | 314° |
| 2026-05-09 00:47 | -5.04063 | 105.20496 | 5858 ft | 275 kts | 314° |
| 2026-05-09 00:47 | -5.02797 | 105.19093 | 5575 ft | 275 kts | 314° |
| 2026-05-09 00:47 | -5.01611 | 105.17597 | 5271 ft | 276 kts | 298° |
| 2026-05-09 00:47 | -5.01156 | 105.15739 | 5008 ft | 277 kts | 269° |
| 2026-05-09 00:48 | -5.01626 | 105.13889 | 4755 ft | 275 kts | 242° |
| 2026-05-09 00:48 | -5.02746 | 105.12353 | 4504 ft | 272 kts | 229° |
| 2026-05-09 00:48 | -5.03990 | 105.10931 | 4237 ft | 271 kts | 228° |
| 2026-05-09 00:48 | -5.05227 | 105.09516 | 3989 ft | 269 kts | 229° |
| 2026-05-09 00:49 | -5.06449 | 105.08105 | 3726 ft | 267 kts | 229° |
| 2026-05-09 00:49 | -5.07874 | 105.06950 | 3444 ft | 264 kts | 200° |
| 2026-05-09 00:49 | -5.09650 | 105.06780 | 3228 ft | 257 kts | 166° |
| 2026-05-09 00:49 | -5.11324 | 105.07355 | 3006 ft | 253 kts | 154° |
| 2026-05-09 00:50 | -5.12824 | 105.08260 | 2764 ft | 249 kts | 142° |
| 2026-05-09 00:50 | -5.14137 | 105.09308 | 2655 ft | 236 kts | 139° |
| 2026-05-09 00:50 | -5.15370 | 105.10358 | 2392 ft | 229 kts | 138° |
| 2026-05-09 00:50 | -5.16570 | 105.11384 | 2092 ft | 224 kts | 138° |
| 2026-05-09 00:51 | -5.17741 | 105.12380 | 1805 ft | 218 kts | 139° |
| 2026-05-09 00:51 | -5.18877 | 105.13344 | 1560 ft | 209 kts | 139° |
| 2026-05-09 00:51 | -5.19951 | 105.14256 | 1292 ft | 194 kts | 139° |
| 2026-05-09 00:51 | -5.20934 | 105.15091 | 1029 ft | 178 kts | 139° |
| 2026-05-09 00:52 | -5.21832 | 105.15853 | 797 ft | 161 kts | 140° |
| 2026-05-09 00:52 | -5.22636 | 105.16541 | 622 ft | 148 kts | 139° |
| 2026-05-09 00:52 | -5.23409 | 105.17239 | 377 ft | 150 kts | 140° |
| 2026-05-09 00:52 | -5.24214 | 105.17880 | 236 ft | 143 kts | 140° |
| 2026-05-09 00:53 | -5.24864 | 105.18428 | 236 ft | 101 kts | 140° |
| 2026-05-09 00:53 | -5.25159 | 105.18677 | 236 ft | 37 kts | 140° |
| 2026-05-09 00:53 | -5.25256 | 105.18787 | 235 ft | 13 kts | 115° |
| 2026-05-09 00:53 | -5.25290 | 105.18804 | 234 ft | 2 kts | 219° |
| 2026-05-09 00:54 | -5.25286 | 105.18784 | 235 ft | 4 kts | 300° |
| 2026-05-09 00:54 | -5.25260 | 105.18762 | 235 ft | 6 kts | 320° |
| 2026-05-09 00:54 | -5.25225 | 105.18732 | 236 ft | 8 kts | 319° |
| 2026-05-09 00:54 | -5.25172 | 105.18688 | 236 ft | 12 kts | 320° |
| 2026-05-09 00:55 | -5.25097 | 105.18624 | 236 ft | 16 kts | 320° |
| 2026-05-09 00:55 | -5.25009 | 105.18550 | 236 ft | 17 kts | 320° |
| 2026-05-09 00:55 | -5.24922 | 105.18477 | 237 ft | 16 kts | 319° |
| 2026-05-09 00:55 | -5.24839 | 105.18406 | 236 ft | 15 kts | 320° |
| 2026-05-09 00:56 | -5.24754 | 105.18335 | 235 ft | 16 kts | 320° |
| 2026-05-09 00:56 | -5.24671 | 105.18264 | 235 ft | 15 kts | 320° |
| 2026-05-09 00:56 | -5.24590 | 105.18196 | 234 ft | 15 kts | 320° |
| 2026-05-09 00:56 | -5.24509 | 105.18127 | 234 ft | 16 kts | 319° |
| 2026-05-09 00:57 | -5.24476 | 105.18053 | 234 ft | 11 kts | 266° |
| 2026-05-09 00:57 | -5.24481 | 105.17977 | 234 ft | 11 kts | 273° |
| 2026-05-09 00:57 | -5.24441 | 105.17918 | 234 ft | 11 kts | 319° |
| 2026-05-09 00:57 | -5.24383 | 105.17868 | 234 ft | 11 kts | 320° |
| 2026-05-09 00:58 | -5.24320 | 105.17816 | 234 ft | 12 kts | 320° |
| 2026-05-09 00:58 | -5.24271 | 105.17774 | 234 ft | 6 kts | 320° |
| 2026-05-09 00:58 | -5.24236 | 105.17745 | 234 ft | 7 kts | 320° |
| 2026-05-09 00:58 | -5.24198 | 105.17713 | 234 ft | 7 kts | 319° |
| 2026-05-09 00:59 | -5.24188 | 105.17682 | 234 ft | 3 kts | 254° |
| 2026-05-09 00:59 | -5.24201 | 105.17660 | 234 ft | 4 kts | 232° |
| 2026-05-09 00:59 | -5.24209 | 105.17650 | 235 ft | 1 kts | 231° |
| 2026-05-09 00:59 | -5.24214 | 105.17644 | 236 ft | 1 kts | 231° |
| 2026-05-09 01:00 | -5.24216 | 105.17642 | 236 ft | 0 kts | 231° |